createdAt,value
2022-09-15T00:00:30.617Z,231.85047
2022-09-15T00:05:32.220Z,196.45902
2022-09-15T00:10:33.852Z,186.51969
2022-09-15T00:15:35.502Z,235.94313
2022-09-15T00:20:37.423Z,324.24691
2022-09-15T00:25:39.081Z,219
2022-09-15T00:30:41.028Z,312.86228
2022-09-15T00:35:42.727Z,222.73303
2022-09-15T00:40:44.367Z,253.54774
2022-09-15T00:45:46.060Z,250.46766
2022-09-15T00:50:47.767Z,243.02913
2022-09-15T00:55:49.415Z,206.12766
2022-09-15T01:00:51.110Z,200.66667
2022-09-15T01:05:52.847Z,208.37768
2022-09-15T01:10:54.505Z,171.30627
2022-09-15T01:15:56.276Z,179.1145
2022-09-15T01:20:57.956Z,195.42857
2022-09-15T01:25:59.595Z,181.83784
2022-09-15T01:31:01.228Z,292.0226
2022-09-15T01:36:02.803Z,233.20188
2022-09-15T01:41:04.409Z,219
2022-09-15T01:46:06.162Z,234.56604
2022-09-15T01:51:07.825Z,200.66667
2022-09-15T01:56:09.470Z,205.01695
2022-09-15T02:01:11.129Z,132.95706
2022-09-15T02:06:12.903Z,137.71069
2022-09-15T02:11:14.583Z,120
2022-09-15T02:16:16.256Z,93.15254
2022-09-15T02:21:17.927Z,94.2439
2022-09-15T02:26:19.538Z,98.77387
2022-09-15T02:31:21.222Z,99.16373
2022-09-15T02:36:22.878Z,93.15254
2022-09-15T02:41:24.625Z,103.17313
2022-09-15T02:46:26.274Z,102.76289
2022-09-15T02:51:27.969Z,118.50425
2022-09-15T02:56:29.613Z,101.54476
2022-09-15T03:01:31.251Z,113.69697
2022-09-15T03:06:32.847Z,94.2439
2022-09-15T03:11:34.449Z,83.36652
2022-09-15T03:16:36.352Z,80.88889
2022-09-15T03:21:38.079Z,78.49782
2022-09-15T03:26:39.674Z,93.87835
2022-09-15T03:31:41.440Z,98.38596
2022-09-15T03:36:43.112Z,88.2623
2022-09-15T03:41:44.801Z,84.31891
2022-09-15T03:46:46.422Z,110.93767
2022-09-15T03:51:48.078Z,127.33333
2022-09-15T03:56:49.759Z,102.76289
2022-09-15T04:01:51.385Z,89.28302
2022-09-15T04:06:53.063Z,93.51456
2022-09-15T04:11:54.658Z,98.38596
2022-09-15T04:16:56.236Z,120.5043
2022-09-15T04:21:57.861Z,132.3792
2022-09-15T04:26:59.480Z,160.14035
2022-09-15T04:32:01.309Z,160.14035
2022-09-15T04:37:02.925Z,190.4
2022-09-15T04:42:04.560Z,172.14815
2022-09-15T04:47:06.307Z,111.3913
2022-09-15T04:52:09.898Z,112.76712
2022-09-15T04:57:11.753Z,137.71069
2022-09-15T05:02:13.419Z,134.12346
2022-09-15T05:07:15.066Z,120.5043
2022-09-15T05:12:16.700Z,114.16575
2022-09-15T05:17:18.268Z,125.17647
2022-09-15T05:22:19.855Z,114.63712
2022-09-15T05:27:21.470Z,125.17647
2022-09-15T05:32:23.151Z,105.67979
2022-09-15T05:37:24.751Z,123.06977
2022-09-15T05:42:26.357Z,109.5914
2022-09-15T05:47:28.150Z,101.94872
2022-09-15T05:52:29.829Z,100.34518
2022-09-15T05:57:31.420Z,128.98498
2022-09-15T06:02:33.285Z,106.96296
2022-09-15T06:07:34.934Z,110.48649
2022-09-15T06:12:36.679Z,150.71141
2022-09-15T06:17:38.269Z,130.10272
2022-09-15T06:22:39.904Z,140.17834
2022-09-15T06:27:41.671Z,171.30627
2022-09-15T06:32:47.425Z,130.66667
2022-09-15T06:37:49.871Z,120.5043
2022-09-15T06:42:51.503Z,113.69697
2022-09-15T06:48:07.611Z,113.69697
2022-09-15T06:53:22.258Z,107.82979
2022-09-15T06:58:23.876Z,107.82979
2022-09-15T07:03:25.598Z,114.63712
2022-09-15T07:08:27.287Z,154.9589
2022-09-15T07:13:28.915Z,180.92308
2022-09-15T07:18:30.731Z,167.18841
2022-09-15T07:23:32.417Z,154.23891
2022-09-15T07:28:34.051Z,137.10345
2022-09-15T07:33:35.700Z,97.23383
2022-09-15T07:38:37.310Z,82.42697
2022-09-15T07:43:38.948Z,82.11659
2022-09-15T07:48:40.575Z,78.20479
2022-09-15T07:53:42.210Z,82.11659
2022-09-15T07:58:43.792Z,150.71141
2022-09-15T08:03:45.478Z,139.55556
2022-09-15T08:08:47.196Z,100.34518
2022-09-15T08:13:48.827Z,96.8536
2022-09-15T08:18:50.444Z,84.31891
2022-09-15T08:23:52.057Z,96.47525
2022-09-15T08:28:53.834Z,97.61596
2022-09-15T08:33:55.563Z,135.30435
2022-09-15T08:38:57.260Z,123.06977
2022-09-15T08:43:58.899Z,133.53846
2022-09-15T08:49:02.999Z,102.35476
2022-09-15T08:54:05.003Z,107.39523
2022-09-15T08:59:06.592Z,151.40741
2022-09-15T09:04:08.229Z,120
2022-09-15T09:09:09.859Z,97.61596
2022-09-15T09:14:11.475Z,87.92523
2022-09-15T09:19:13.069Z,89.28302
2022-09-15T09:24:14.746Z,84.63927
2022-09-15T09:29:16.410Z,106.96296
2022-09-15T09:34:18.039Z,101.14286
2022-09-15T09:39:19.624Z,119
2022-09-15T09:44:21.315Z,128.98498
2022-09-15T09:49:23.007Z,139.55556
2022-09-15T09:54:24.545Z,183.68872
2022-09-15T09:59:26.204Z,182.75969
2022-09-15T10:04:27.840Z,185.56863
2022-09-15T10:09:33.234Z,160.90141
2022-09-15T10:14:35.281Z,125.71091
2022-09-15T10:19:36.877Z,125.71091
2022-09-15T10:24:38.485Z,177.33333
2022-09-15T10:29:40.078Z,120.5043
2022-09-15T10:34:41.709Z,126.78932
2022-09-15T10:39:43.324Z,138.32177
2022-09-15T10:44:44.954Z,132.3792
2022-09-15T10:49:46.697Z,136.5
2022-09-15T10:54:48.413Z,107.82979
2022-09-15T10:59:50.034Z,96.09877
2022-09-15T11:04:51.723Z,85.6092
2022-09-15T11:09:53.351Z,107.82979
2022-09-15T11:14:54.989Z,120
2022-09-15T11:19:56.602Z,125.71091
2022-09-15T11:24:58.220Z,138.32177
2022-09-15T11:29:59.855Z,130.66667
2022-09-15T11:35:01.490Z,113.23077
2022-09-15T11:40:03.130Z,107.39523
2022-09-15T11:45:04.804Z,127.33333
2022-09-15T11:50:06.467Z,126.24852
2022-09-15T11:55:08.069Z,128.98498
2022-09-15T12:00:09.737Z,122.03468
2022-09-15T12:05:11.391Z,127.8806
2022-09-15T12:10:12.954Z,113.23077
2022-09-15T12:15:14.560Z,112.76712
2022-09-15T12:20:16.389Z,116.06704
2022-09-15T12:25:18.057Z,117.03371
2022-09-15T12:30:19.637Z,117.52113
2022-09-15T12:35:21.274Z,122.03468
2022-09-15T12:40:22.961Z,132.95706
2022-09-15T12:45:24.602Z,122.03468
2022-09-15T12:50:26.222Z,118.50425
2022-09-15T12:55:27.809Z,108.26667
2022-09-15T13:00:29.414Z,124.11696
2022-09-15T13:05:31.035Z,122.03468
2022-09-15T13:10:32.677Z,117.03371
2022-09-15T13:15:35.543Z,116.06704
2022-09-15T13:20:37.171Z,107.39523
2022-09-15T13:25:38.802Z,112.30601
2022-09-15T13:30:40.522Z,101.14286
2022-09-15T13:35:42.247Z,93.15254
2022-09-15T13:40:43.860Z,115.11111
2022-09-15T13:45:45.515Z,120.5043
2022-09-15T13:50:47.112Z,120.5043
2022-09-15T13:55:48.729Z,127.8806
2022-09-15T14:00:50.342Z,125.71091
2022-09-15T14:05:51.972Z,107.82979
2022-09-15T14:10:53.572Z,111.84741
2022-09-15T14:15:55.267Z,116.06704
2022-09-15T14:20:56.917Z,135.30435
2022-09-15T14:25:58.539Z,115.58774
2022-09-15T14:31:00.146Z,126.78932
2022-09-15T14:36:01.851Z,130.66667
2022-09-15T14:41:03.454Z,112.76712
2022-09-15T14:46:08.837Z,125.71091
2022-09-15T14:51:11.007Z,127.33333
2022-09-15T14:56:12.645Z,115.58774
2022-09-15T15:01:14.283Z,147.97351
2022-09-15T15:06:29.466Z,137.71069
2022-09-15T15:11:31.562Z,136.5
2022-09-15T15:16:33.347Z,123.59184
2022-09-15T15:21:35.055Z,122.55072
2022-09-15T15:26:36.721Z,122.55072
2022-09-15T15:31:38.397Z,135.30435
2022-09-15T15:36:40.109Z,135.30435
2022-09-15T15:41:41.796Z,131.23404
2022-09-15T15:46:43.556Z,127.33333
2022-09-15T15:51:45.136Z,127.33333
2022-09-15T15:56:46.757Z,127.8806
2022-09-15T16:01:48.426Z,123.59184
2022-09-15T16:06:50.086Z,136.5
2022-09-15T16:11:51.969Z,126.78932
2022-09-15T16:16:53.600Z,134.71207
2022-09-15T16:21:55.202Z,122.55072
2022-09-15T16:26:56.796Z,119
2022-09-15T16:31:58.458Z,119.49858
2022-09-15T16:37:00.115Z,116.54902
2022-09-15T16:42:01.711Z,125.17647
2022-09-15T16:47:03.484Z,138.32177
2022-09-15T16:52:05.110Z,127.8806
2022-09-15T16:57:06.768Z,131.23404
2022-09-15T17:02:08.519Z,177.33333
2022-09-15T17:07:10.183Z,159.38462
2022-09-15T17:17:13.510Z,161.66784
2022-09-15T17:22:15.169Z,138.93671
2022-09-15T17:27:17.082Z,158.63415
2022-09-15T17:32:18.752Z,153.52381
2022-09-15T17:37:20.449Z,159.38462
2022-09-15T17:42:22.404Z,150.02007
2022-09-15T17:47:24.049Z,177.33333
2022-09-15T17:52:25.676Z,177.33333
2022-09-15T17:57:27.302Z,175.57895
2022-09-15T18:02:29.052Z,182.75969
2022-09-15T18:07:30.808Z,209.51724
2022-09-15T18:12:32.559Z,237.33333
2022-09-15T18:17:34.189Z,250.46766
2022-09-15T18:22:35.822Z,278.78261
2022-09-15T18:27:37.427Z,253.54774
2022-09-15T18:32:39.396Z,276.97297
2022-09-15T18:37:41.013Z,263.17098
2022-09-15T18:42:42.663Z,259.89744
2022-09-15T18:47:44.276Z,221.47748
2022-09-15T18:52:45.889Z,310.66667
2022-09-15T18:57:47.521Z,365.91781
2022-09-15T19:02:49.175Z,306.35294
2022-09-15T19:07:50.841Z,363.04762
2022-09-15T19:12:52.453Z,310.66667
2022-09-15T19:17:54.057Z,396.94118
2022-09-15T19:22:55.712Z,344
2022-09-15T19:27:57.341Z,298.02299
2022-09-15T19:32:58.990Z,371.77778
2022-09-15T19:38:00.627Z,306.35294
2022-09-15T19:43:02.307Z,284.33149
2022-09-15T19:48:03.971Z,304.23392
2022-09-15T19:53:05.630Z,333.87342
2022-09-15T19:58:07.289Z,324.24691
2022-09-15T20:03:08.926Z,351.94702
2022-09-15T20:08:10.622Z,341.41935
2022-09-15T20:13:12.238Z,365.91781
2022-09-15T20:18:13.835Z,315.08434
2022-09-15T20:23:15.557Z,310.66667
2022-09-15T20:28:17.281Z,315.08434
2022-09-15T20:33:18.935Z,310.66667
2022-09-15T20:38:20.568Z,315.08434
2022-09-15T20:43:22.156Z,331.42138
2022-09-15T20:48:23.731Z,317.33333
2022-09-15T20:53:25.399Z,333.87342
2022-09-15T20:58:27.057Z,333.87342
2022-09-15T21:03:28.669Z,346.61438
2022-09-15T21:08:30.336Z,315.08434
2022-09-15T21:13:31.928Z,365.91781
2022-09-15T21:18:33.617Z,302.13953
2022-09-15T21:23:35.330Z,284.33149
2022-09-15T21:28:36.946Z,298.02299
2022-09-15T21:33:38.560Z,286.22222
2022-09-15T21:38:40.212Z,365.91781
2022-09-15T21:43:41.846Z,276.97297
2022-09-15T21:48:43.589Z,259.89744
2022-09-15T21:53:45.222Z,255.11111
2022-09-15T21:58:46.845Z,275.1828
2022-09-15T22:03:48.473Z,346.61438
2022-09-15T22:08:50.126Z,365.91781
2022-09-15T22:13:51.777Z,333.87342
2022-09-15T22:18:53.503Z,298.02299
2022-09-15T22:23:55.238Z,304.23392
2022-09-15T22:28:56.854Z,221.47748
2022-09-15T22:33:58.457Z,288.13408
2022-09-15T22:39:00.081Z,294
2022-09-15T22:44:01.702Z,215.36564
2022-09-15T22:49:03.322Z,253.54774
2022-09-15T22:54:04.930Z,226.56881
2022-09-15T22:59:06.625Z,280.61202
2022-09-15T23:04:08.210Z,393.63504
2022-09-15T23:09:09.822Z,374.76923
2022-09-15T23:14:11.503Z,410.66667
2022-09-15T23:19:13.156Z,203.91561
2022-09-15T23:24:14.751Z,207.24786
2022-09-15T23:29:16.388Z,174.71161
2022-09-15T23:34:18.000Z,160.90141
2022-09-15T23:39:19.642Z,161.66784
2022-09-15T23:44:21.316Z,152.10811
2022-09-15T23:49:23.070Z,121.01149
2022-09-15T23:54:24.791Z,146.63158
2022-09-15T23:59:26.429Z,116.06704
